Meath Environmental Platform

Observations for Trim Patrick St

Time AQI Temp °C Hum % Pres Pa CO μg/m³ H₂S μg/m³ NO μg/m³ NO₂ μg/m³ O₃ μg/m³ SO₂ μg/m³ PM1 μg/m³ PM2.5 μg/m³ PM10 μg/m³
Sunday 2 August 2026
22:01 2 15.7 80 38,460 0.15 15.53 1.38 57.91 6.33 0 5.43 10.15 11.16
22:00 2 15.7 80 38,460 0.17 14.3 1.34 61.76 22.17 0 4.57 8.06 8.86
21:59 2 15.7 79 38,460 0.17 12.27 1.18 43.4 15.36 0 5.43 8.07 8.88
21:58 2 15.7 79 38,460 0.17 14.07 1.27 45.52 12.73 0 4.57 7.37 8.11
21:57 2 15.7 79 38,460 0.16 15.48 1.09 57.84 25.92 0 4.57 8.79 9.67
21:56 2 15.7 79 38,460 0.17 13.03 1.15 55.33 13.26 0 5.43 8.81 9.69
21:55 2 15.7 79 38,460 0.17 14.02 1.27 42.98 29.16 0 4.57 8.82 9.7
21:54 2 15.7 79 38,460 0.2 14.43 1.53 53.19 11.97 0 5.43 10.23 11.26
21:53 2 15.7 78 38,460 0.19 16.13 1.53 57.77 15.37 0.06 4.57 8.13 8.94
21:52 2 15.7 78 38,460 0.15 14.3 1.64 51.4 10.12 0 4.57 8.85 9.73
21:51 2 15.7 78 38,460 0.16 15.58 1.58 59.86 0.71 0 4.57 8.15 8.97
21:50 2 15.7 78 38,460 0.14 16.13 1.42 64.82 10.78 0.08 3.71 6.76 7.44
21:49 2 15.8 78 38,460 0.13 12.61 1.19 50.93 7.51 0 2.86 7.49 8.23
21:48 2 15.8 78 38,460 0.13 11.31 1.17 44.58 13.45 0.38 5.43 8.19 9.01
21:47 2 15.7 78 38,460 0.14 11.04 1.21 46.02 11.14 0.43 6.29 8.91 9.8
21:46 2 15.8 78 38,460 0.13 10.76 1.17 41.03 18.72 0.29 4.57 8.21 9.03
21:45 2 15.8 77 38,460 0.13 10.73 1.26 44.2 13.62 0.32 2.86 6.1 6.71
21:44 2 15.8 77 38,460 0.13 10.79 1.47 37.83 23.46 0.27 4.57 8.22 9.04
21:43 2 15.8 77 38,460 0.12 13.31 1.46 48.41 12.53 0.34 5.43 8.93 9.83
21:41 2 15.8 77 38,460 0.11 11.05 1.41 42.37 14.84 0 3.71 7.54 8.3